createdAt,value
2017-12-20T00:01:41.827Z,3.50
2017-12-20T00:04:09.695Z,3.60
2017-12-20T00:06:37.602Z,3.70
2017-12-20T00:09:05.055Z,3.70
2017-12-20T00:11:34.537Z,3.80
2017-12-20T00:14:02.028Z,3.70
2017-12-20T00:16:29.524Z,3.70
2017-12-20T00:18:56.966Z,3.60
2017-12-20T00:21:24.520Z,3.60
2017-12-20T00:23:52.002Z,3.60
2017-12-20T00:26:19.883Z,3.60
2017-12-20T00:28:47.798Z,3.70
2017-12-20T00:31:15.328Z,3.70
2017-12-20T00:33:42.812Z,3.70
2017-12-20T00:36:11.172Z,3.70
2017-12-20T00:38:38.708Z,3.70
2017-12-20T00:41:06.585Z,3.70
2017-12-20T00:43:36.016Z,3.70
2017-12-20T00:46:03.524Z,3.70
2017-12-20T00:48:31.347Z,3.60
2017-12-20T00:50:58.781Z,3.60
2017-12-20T00:53:26.226Z,3.60
2017-12-20T00:55:53.667Z,3.60
2017-12-20T00:58:21.510Z,3.60
2017-12-20T01:00:48.954Z,3.60
2017-12-20T01:03:17.135Z,3.60
2017-12-20T01:05:45.475Z,3.60
2017-12-20T01:08:12.930Z,3.70
2017-12-20T01:10:40.379Z,3.70
2017-12-20T01:13:07.815Z,3.60
2017-12-20T01:15:35.258Z,3.70
2017-12-20T01:18:02.740Z,3.70
2017-12-20T01:20:30.567Z,3.60
2017-12-20T01:22:58.008Z,3.70
2017-12-20T01:25:25.483Z,3.70
2017-12-20T01:27:52.915Z,3.70
2017-12-20T01:30:20.346Z,3.70
2017-12-20T01:32:47.791Z,3.70
2017-12-20T01:35:15.234Z,3.70
2017-12-20T01:37:43.058Z,3.70
2017-12-20T01:40:10.494Z,3.60
2017-12-20T01:42:37.970Z,3.70
2017-12-20T01:45:05.399Z,3.70
2017-12-20T01:47:32.855Z,3.70
2017-12-20T01:50:00.290Z,3.80
2017-12-20T01:52:27.731Z,3.80
2017-12-20T01:54:55.565Z,3.70
2017-12-20T01:57:23.002Z,3.70
2017-12-20T01:59:50.458Z,3.70
2017-12-20T02:02:17.903Z,3.80
2017-12-20T02:04:45.381Z,3.90
2017-12-20T02:07:12.818Z,3.80
2017-12-20T02:09:41.139Z,3.80
2017-12-20T02:12:08.570Z,3.80
2017-12-20T02:14:37.336Z,3.80
2017-12-20T02:17:04.764Z,3.70
2017-12-20T02:19:33.502Z,3.70
2017-12-20T02:22:00.938Z,3.70
2017-12-20T02:24:28.430Z,3.70
2017-12-20T02:26:55.862Z,3.70
2017-12-20T02:29:23.311Z,3.70
2017-12-20T02:31:50.750Z,3.70
2017-12-20T02:34:18.192Z,3.70
2017-12-20T02:36:47.978Z,3.70
2017-12-20T02:39:15.421Z,3.70
2017-12-20T02:41:42.859Z,3.70
2017-12-20T02:44:10.303Z,3.70
2017-12-20T02:46:37.771Z,3.70
2017-12-20T02:49:05.207Z,3.70
2017-12-20T02:51:32.646Z,3.70
2017-12-20T02:54:00.490Z,3.80
2017-12-20T02:56:27.956Z,3.80
2017-12-20T02:58:55.385Z,3.80
2017-12-20T03:01:22.822Z,3.80
2017-12-20T03:03:50.261Z,3.80
2017-12-20T03:06:17.707Z,3.80
2017-12-20T03:08:45.141Z,3.80
2017-12-20T03:11:12.963Z,3.70
2017-12-20T03:13:40.405Z,3.70
2017-12-20T03:16:07.837Z,3.70
2017-12-20T03:18:37.216Z,3.80
2017-12-20T03:21:05.052Z,3.80
2017-12-20T03:23:32.478Z,3.80
2017-12-20T03:25:59.946Z,3.80
2017-12-20T03:28:28.289Z,3.70
2017-12-20T03:30:56.131Z,3.70
2017-12-20T03:33:23.553Z,3.70
2017-12-20T03:35:52.967Z,3.70
2017-12-20T03:38:20.413Z,3.70
2017-12-20T03:40:47.846Z,3.70
2017-12-20T03:43:15.300Z,3.80
2017-12-20T03:45:42.756Z,3.70
2017-12-20T03:48:10.194Z,3.70
2017-12-20T03:50:38.027Z,3.70
2017-12-20T03:53:05.466Z,3.70
2017-12-20T03:55:32.912Z,3.70
2017-12-20T03:58:00.512Z,3.70
2017-12-20T04:00:27.946Z,3.70
2017-12-20T04:02:55.386Z,3.70
2017-12-20T04:05:22.822Z,3.70
2017-12-20T04:07:50.267Z,3.80
2017-12-20T04:10:17.709Z,3.70
2017-12-20T04:12:45.149Z,3.70
2017-12-20T04:15:13.522Z,3.70
2017-12-20T04:17:40.961Z,3.70
2017-12-20T04:20:08.410Z,3.80
2017-12-20T04:22:35.846Z,3.80
2017-12-20T04:25:03.302Z,3.80
2017-12-20T04:27:30.755Z,3.80
2017-12-20T04:29:58.870Z,3.80
2017-12-20T04:32:26.300Z,3.80
2017-12-20T04:34:53.750Z,3.80
2017-12-20T04:37:21.179Z,3.80
2017-12-20T04:39:50.959Z,3.80
2017-12-20T04:42:18.391Z,3.90
2017-12-20T04:44:45.838Z,3.80
2017-12-20T04:47:14.182Z,3.80
2017-12-20T04:49:42.014Z,3.80
2017-12-20T04:52:09.464Z,3.80
2017-12-20T04:54:36.895Z,3.80
2017-12-20T04:57:06.266Z,3.80
2017-12-20T04:59:34.985Z,3.90
2017-12-20T05:02:02.438Z,3.90
2017-12-20T05:04:30.554Z,3.90
2017-12-20T05:06:57.978Z,3.90
2017-12-20T05:09:25.491Z,3.90
2017-12-20T05:11:53.325Z,3.80
2017-12-20T05:14:20.778Z,3.80
2017-12-20T05:16:49.063Z,3.80
2017-12-20T05:19:16.511Z,3.80
2017-12-20T05:21:44.831Z,3.80
2017-12-20T05:24:12.683Z,3.80
2017-12-20T05:26:40.526Z,3.80
2017-12-20T05:29:07.973Z,3.80
2017-12-20T05:31:35.411Z,3.80
2017-12-20T05:34:02.870Z,3.80
2017-12-20T05:36:30.299Z,3.80
2017-12-20T05:38:57.741Z,3.80
2017-12-20T05:41:25.572Z,3.80
2017-12-20T05:43:53.020Z,3.80
2017-12-20T05:46:20.466Z,3.80
2017-12-20T05:48:47.898Z,3.80
2017-12-20T05:51:15.442Z,3.80
2017-12-20T05:53:43.275Z,3.80
2017-12-20T05:56:11.597Z,3.80
2017-12-20T05:58:39.039Z,3.80
2017-12-20T06:01:08.830Z,3.80
2017-12-20T06:03:36.274Z,3.80
2017-12-20T06:06:03.726Z,3.80
2017-12-20T06:08:31.171Z,3.80
2017-12-20T06:10:59.494Z,3.80
2017-12-20T06:13:29.292Z,3.80
2017-12-20T06:15:56.746Z,3.80
2017-12-20T06:18:24.187Z,3.80
2017-12-20T06:20:51.623Z,3.80
2017-12-20T06:23:19.067Z,3.80
2017-12-20T06:25:46.523Z,3.80
2017-12-20T06:28:17.186Z,3.80
2017-12-20T06:30:44.690Z,3.80
2017-12-20T06:33:12.515Z,3.80
2017-12-20T06:35:40.875Z,3.90
2017-12-20T06:38:08.313Z,3.80
2017-12-20T06:40:35.742Z,3.80
2017-12-20T06:43:03.187Z,3.80
2017-12-20T06:45:30.628Z,3.80
2017-12-20T06:47:58.284Z,3.80
2017-12-20T06:50:25.715Z,3.80
2017-12-20T06:52:54.088Z,3.80
2017-12-20T06:55:21.538Z,3.80
2017-12-20T06:57:48.970Z,3.80
2017-12-20T07:00:17.306Z,3.80
2017-12-20T07:02:44.755Z,3.80
2017-12-20T07:05:12.196Z,3.80
2017-12-20T07:07:39.646Z,3.80
2017-12-20T07:10:07.102Z,3.80
2017-12-20T07:12:34.565Z,3.80
2017-12-20T07:15:17.549Z,3.80
2017-12-20T07:17:47.202Z,3.80
2017-12-20T07:20:14.716Z,3.80
2017-12-20T07:22:42.551Z,3.90
2017-12-20T07:25:09.991Z,3.90
2017-12-20T07:27:37.455Z,3.90
2017-12-20T07:30:04.882Z,3.90
2017-12-20T07:32:32.334Z,3.90
2017-12-20T07:34:59.753Z,3.90
2017-12-20T07:37:27.581Z,4.00
2017-12-20T07:39:55.973Z,4.00
2017-12-20T07:42:23.421Z,3.90
2017-12-20T07:44:50.877Z,3.90
2017-12-20T07:47:18.311Z,3.90
2017-12-20T07:49:46.657Z,3.90
2017-12-20T07:52:14.858Z,3.90
2017-12-20T07:54:42.304Z,3.90
2017-12-20T07:57:10.639Z,3.90
2017-12-20T07:59:38.082Z,3.90
2017-12-20T08:02:05.539Z,3.90
2017-12-20T08:04:32.993Z,3.90
2017-12-20T08:07:00.442Z,4.00
2017-12-20T08:09:27.891Z,4.00
2017-12-20T08:14:39.845Z,4.10
2017-12-20T08:17:07.299Z,4.10
2017-12-20T08:19:34.739Z,4.10
2017-12-20T08:22:02.252Z,4.20
2017-12-20T08:24:29.721Z,4.20
2017-12-20T08:26:57.176Z,4.20
2017-12-20T08:29:26.583Z,4.20
2017-12-20T08:31:54.027Z,4.20
2017-12-20T08:34:21.496Z,4.20
2017-12-20T08:36:48.934Z,4.20
2017-12-20T08:39:16.376Z,4.30
2017-12-20T08:41:44.224Z,4.30
2017-12-20T08:44:11.651Z,4.30
2017-12-20T08:46:39.095Z,4.30
2017-12-20T08:49:06.599Z,4.30
2017-12-20T08:51:34.034Z,4.30
2017-12-20T08:54:01.471Z,4.30
2017-12-20T08:56:28.920Z,4.40
2017-12-20T08:58:56.351Z,4.40
2017-12-20T09:01:24.170Z,4.40
2017-12-20T09:03:51.624Z,4.40
2017-12-20T09:06:19.070Z,4.40
2017-12-20T09:08:46.510Z,4.50
2017-12-20T09:11:13.947Z,4.40
2017-12-20T09:13:41.394Z,4.40
2017-12-20T09:16:09.234Z,4.40
2017-12-20T09:18:36.685Z,4.40
2017-12-20T09:21:04.122Z,4.40
2017-12-20T09:23:31.571Z,4.50
2017-12-20T09:25:59.946Z,4.50
2017-12-20T09:28:27.386Z,4.50
2017-12-20T09:30:54.842Z,4.50
2017-12-20T09:33:22.294Z,4.50
2017-12-20T09:35:49.735Z,4.60
2017-12-20T09:38:17.610Z,4.40
2017-12-20T09:40:45.882Z,4.40
2017-12-20T09:43:13.711Z,4.40
2017-12-20T09:45:41.146Z,4.40
2017-12-20T09:48:08.594Z,4.40
2017-12-20T09:50:36.047Z,4.40
2017-12-20T09:53:03.505Z,4.40
2017-12-20T09:55:30.954Z,4.40
2017-12-20T09:57:58.402Z,4.40
2017-12-20T10:00:25.857Z,4.30
2017-12-20T10:02:54.234Z,4.40
2017-12-20T10:05:21.691Z,4.40
2017-12-20T10:07:49.121Z,4.40
2017-12-20T10:10:17.523Z,4.50
2017-12-20T10:12:45.362Z,4.40
2017-12-20T10:15:13.719Z,4.40
2017-12-20T10:17:41.157Z,4.50
2017-12-20T10:20:08.617Z,4.50
2017-12-20T10:22:36.068Z,4.50
2017-12-20T10:25:03.494Z,4.60
2017-12-20T10:27:30.943Z,4.50
2017-12-20T10:29:58.774Z,4.60
2017-12-20T10:32:26.210Z,4.70
2017-12-20T10:34:54.469Z,4.50
2017-12-20T10:37:22.812Z,4.50
2017-12-20T10:39:50.649Z,4.50
2017-12-20T10:42:18.097Z,4.50
2017-12-20T10:44:45.532Z,4.50
2017-12-20T10:47:12.954Z,4.40
2017-12-20T10:49:40.797Z,4.40
2017-12-20T10:52:09.161Z,4.40
2017-12-20T10:54:36.601Z,4.40
2017-12-20T10:57:04.053Z,4.40
2017-12-20T10:59:31.533Z,4.40
2017-12-20T11:01:59.879Z,4.40
2017-12-20T11:04:29.251Z,4.40
2017-12-20T11:06:57.998Z,4.40
2017-12-20T11:09:25.434Z,4.40
2017-12-20T11:11:52.866Z,4.40
2017-12-20T11:14:20.304Z,4.40
2017-12-20T11:16:48.144Z,4.40
2017-12-20T11:19:15.583Z,4.40
2017-12-20T11:21:44.991Z,4.40
2017-12-20T11:24:12.419Z,4.40
2017-12-20T11:26:39.857Z,4.50
2017-12-20T11:29:08.307Z,4.40
2017-12-20T11:31:35.749Z,4.50
2017-12-20T11:34:03.178Z,4.40
2017-12-20T11:36:32.386Z,4.40
2017-12-20T11:38:59.821Z,4.40
2017-12-20T11:41:27.268Z,4.40
2017-12-20T11:43:55.606Z,4.40
2017-12-20T11:46:23.050Z,4.40
2017-12-20T11:48:51.369Z,4.40
2017-12-20T11:51:18.802Z,4.40
2017-12-20T11:53:46.638Z,4.40
2017-12-20T11:56:14.083Z,4.40
2017-12-20T11:58:41.528Z,4.40
2017-12-20T12:01:08.966Z,4.40
2017-12-20T12:03:36.448Z,4.40
2017-12-20T12:06:04.261Z,4.40
2017-12-20T12:08:32.102Z,4.40
2017-12-20T12:10:59.530Z,4.40
2017-12-20T12:13:26.986Z,4.40
2017-12-20T12:15:54.418Z,4.50
2017-12-20T12:18:21.854Z,4.40
2017-12-20T12:20:49.698Z,4.50
2017-12-20T12:23:18.084Z,4.50
2017-12-20T12:25:45.520Z,4.60
2017-12-20T12:28:12.956Z,4.50
2017-12-20T12:30:40.411Z,4.50
2017-12-20T12:33:07.836Z,4.50
2017-12-20T12:35:35.683Z,4.60
2017-12-20T12:38:03.120Z,4.60
2017-12-20T12:40:30.560Z,4.60
2017-12-20T12:42:57.995Z,4.60
2017-12-20T12:45:25.450Z,4.60
2017-12-20T12:47:52.869Z,4.60
2017-12-20T12:50:20.302Z,4.70
2017-12-20T12:52:49.686Z,4.70
2017-12-20T12:55:17.122Z,4.60
2017-12-20T12:57:44.558Z,4.60
2017-12-20T13:00:16.334Z,4.70
2017-12-20T13:02:44.651Z,4.70
2017-12-20T13:05:12.089Z,4.70
2017-12-20T13:07:39.555Z,4.70
2017-12-20T13:10:07.019Z,4.70
2017-12-20T13:12:34.469Z,4.70
2017-12-20T13:15:01.916Z,4.80
2017-12-20T13:17:29.368Z,4.80
2017-12-20T13:19:57.724Z,4.80
2017-12-20T13:22:25.173Z,4.70
2017-12-20T13:24:53.003Z,4.70
2017-12-20T13:27:21.309Z,4.70
2017-12-20T13:29:49.135Z,4.80
2017-12-20T13:32:16.578Z,4.80
2017-12-20T13:34:44.031Z,4.70
2017-12-20T13:37:11.463Z,4.80
2017-12-20T13:39:38.918Z,4.80
2017-12-20T13:42:06.357Z,4.80
2017-12-20T13:44:34.197Z,4.90
2017-12-20T13:47:01.632Z,4.90
2017-12-20T13:49:29.087Z,4.90
2017-12-20T13:51:56.532Z,4.90
2017-12-20T13:54:23.968Z,4.90
2017-12-20T13:56:52.418Z,4.90
2017-12-20T13:59:20.720Z,4.90
2017-12-20T14:01:48.180Z,4.90
2017-12-20T14:04:17.642Z,4.90
2017-12-20T14:06:45.099Z,4.90
2017-12-20T14:09:12.530Z,4.90
2017-12-20T14:11:39.986Z,4.90
2017-12-20T14:14:07.437Z,4.90
2017-12-20T14:16:35.846Z,4.80
2017-12-20T14:19:04.090Z,4.80
2017-12-20T14:21:34.109Z,4.80
2017-12-20T14:24:02.431Z,4.80
2017-12-20T14:26:29.947Z,4.90
2017-12-20T14:28:57.360Z,4.90
2017-12-20T14:31:25.220Z,4.80
2017-12-20T14:33:52.649Z,4.90
2017-12-20T14:36:20.094Z,4.80
2017-12-20T14:38:50.335Z,4.80
2017-12-20T14:41:17.773Z,4.90
2017-12-20T14:43:45.986Z,4.80
2017-12-20T14:46:13.437Z,4.80
2017-12-20T14:48:40.876Z,4.80
2017-12-20T14:51:08.363Z,4.90
2017-12-20T14:53:37.713Z,4.90
2017-12-20T14:56:05.160Z,4.90
2017-12-20T14:58:32.607Z,4.80
2017-12-20T15:01:00.042Z,4.80
2017-12-20T15:03:27.870Z,4.80
2017-12-20T15:05:55.315Z,4.80
2017-12-20T15:08:22.761Z,4.80
2017-12-20T15:10:50.210Z,4.80
2017-12-20T15:13:17.642Z,4.80
2017-12-20T15:15:45.079Z,4.80
2017-12-20T15:18:12.912Z,4.80
2017-12-20T15:20:40.363Z,4.80
2017-12-20T15:23:07.800Z,4.80
2017-12-20T15:25:36.215Z,4.80
2017-12-20T15:28:04.530Z,4.80
2017-12-20T15:30:32.363Z,4.80
2017-12-20T15:32:59.807Z,4.80
2017-12-20T15:35:28.126Z,4.80
2017-12-20T15:37:55.987Z,4.80
2017-12-20T15:40:23.806Z,4.80
2017-12-20T15:42:51.245Z,4.80
2017-12-20T15:45:18.685Z,4.80
2017-12-20T15:47:46.118Z,4.70
2017-12-20T15:50:13.954Z,4.70
2017-12-20T15:52:41.398Z,4.70
2017-12-20T15:55:08.837Z,4.70
2017-12-20T15:57:38.212Z,4.70
2017-12-20T16:00:06.065Z,4.70
2017-12-20T16:02:33.890Z,4.80
2017-12-20T16:05:01.334Z,4.80
2017-12-20T16:07:28.801Z,4.80
2017-12-20T16:09:56.247Z,4.70
2017-12-20T16:12:24.628Z,4.70
2017-12-20T16:14:52.062Z,4.70
2017-12-20T16:17:19.531Z,4.70
2017-12-20T16:19:47.826Z,4.70
2017-12-20T16:22:20.871Z,4.70
2017-12-20T16:24:49.610Z,4.70
2017-12-20T16:27:18.036Z,4.70
2017-12-20T16:29:45.858Z,4.70
2017-12-20T16:32:13.306Z,4.70
2017-12-20T16:34:40.746Z,4.70
2017-12-20T16:37:08.190Z,4.60
2017-12-20T16:39:35.669Z,4.70
2017-12-20T16:42:03.102Z,4.70
2017-12-20T16:44:30.529Z,4.70
2017-12-20T16:46:57.965Z,4.70
2017-12-20T16:49:25.423Z,4.70
2017-12-20T16:51:52.866Z,4.60
2017-12-20T16:54:20.310Z,4.60
2017-12-20T16:56:47.782Z,4.60
2017-12-20T16:59:17.186Z,4.60
2017-12-20T17:01:46.075Z,4.60
2017-12-20T17:04:14.430Z,4.60
2017-12-20T17:06:41.894Z,4.60
2017-12-20T17:09:09.451Z,4.60
2017-12-20T17:11:37.554Z,4.60
2017-12-20T17:14:04.994Z,4.60
2017-12-20T17:16:32.444Z,4.60
2017-12-20T17:18:59.874Z,4.60
2017-12-20T17:21:27.827Z,4.60
2017-12-20T17:23:55.654Z,4.50
2017-12-20T17:26:23.098Z,4.50
2017-12-20T17:28:50.557Z,4.60
2017-12-20T17:31:18.119Z,4.60
2017-12-20T17:33:45.554Z,4.60
2017-12-20T17:36:13.008Z,4.60
2017-12-20T17:38:40.438Z,4.50
2017-12-20T17:41:08.290Z,4.50
2017-12-20T17:43:37.050Z,4.50
2017-12-20T17:46:04.495Z,4.50
2017-12-20T17:48:31.934Z,4.50
2017-12-20T17:51:00.306Z,4.50
2017-12-20T17:53:27.793Z,4.60
2017-12-20T17:55:55.228Z,4.60
2017-12-20T17:58:23.710Z,4.60
2017-12-20T18:00:51.152Z,4.60
2017-12-20T18:03:18.594Z,4.60
2017-12-20T18:05:46.953Z,4.50
2017-12-20T18:08:15.671Z,4.50
2017-12-20T18:10:43.192Z,4.50
2017-12-20T18:13:11.574Z,4.60
2017-12-20T18:15:39.028Z,4.50
2017-12-20T18:18:06.462Z,4.50
2017-12-20T18:20:33.899Z,4.50
2017-12-20T18:23:01.350Z,4.50
2017-12-20T18:25:28.795Z,4.50
2017-12-20T18:27:56.224Z,4.50
2017-12-20T18:30:24.069Z,4.60
2017-12-20T18:32:51.503Z,4.60
2017-12-20T18:35:18.942Z,4.50
2017-12-20T18:37:46.664Z,4.40
2017-12-20T18:40:14.735Z,4.50
2017-12-20T18:42:42.397Z,4.50
2017-12-20T18:45:10.261Z,4.60
2017-12-20T18:47:38.633Z,4.60
2017-12-20T18:50:07.127Z,4.50
2017-12-20T18:52:35.845Z,4.60
2017-12-20T18:55:03.274Z,4.60
2017-12-20T18:57:31.114Z,4.50
2017-12-20T18:59:59.481Z,4.60
2017-12-20T19:02:27.319Z,4.50
2017-12-20T19:04:54.766Z,4.50
2017-12-20T19:07:22.215Z,4.60
2017-12-20T19:09:49.661Z,4.60
2017-12-20T19:12:17.503Z,4.60
2017-12-20T19:14:44.943Z,4.60
2017-12-20T19:17:12.416Z,4.60
2017-12-20T19:19:39.867Z,4.60
2017-12-20T19:22:08.207Z,4.60
2017-12-20T19:24:35.681Z,4.50
2017-12-20T19:27:05.064Z,4.50
2017-12-20T19:29:33.446Z,4.60
2017-12-20T19:32:00.890Z,4.60
2017-12-20T19:34:28.392Z,4.60
2017-12-20T19:36:55.888Z,4.60
2017-12-20T19:39:23.747Z,4.60
2017-12-20T19:41:52.522Z,4.60
2017-12-20T19:44:20.056Z,4.60
2017-12-20T19:46:47.512Z,4.50
2017-12-20T19:49:14.998Z,4.50
2017-12-20T19:51:43.291Z,4.60
2017-12-20T19:54:11.151Z,4.60
2017-12-20T19:56:39.011Z,4.50
2017-12-20T19:59:06.449Z,4.50
2017-12-20T20:01:33.927Z,4.50
2017-12-20T20:04:01.787Z,4.60
2017-12-20T20:06:29.263Z,4.60
2017-12-20T20:08:56.697Z,4.60
2017-12-20T20:11:24.181Z,4.60
2017-12-20T20:13:52.039Z,4.70
2017-12-20T20:16:19.914Z,4.60
2017-12-20T20:18:47.800Z,4.60
2017-12-20T20:21:15.265Z,4.60
2017-12-20T20:23:42.721Z,4.60
2017-12-20T20:26:10.177Z,4.60
2017-12-20T20:28:37.635Z,4.60
2017-12-20T20:31:05.606Z,4.60
2017-12-20T20:33:36.466Z,4.60
2017-12-20T20:36:04.967Z,4.60
2017-12-20T20:38:32.405Z,4.60
2017-12-20T20:41:00.371Z,4.70
2017-12-20T20:43:28.369Z,4.60
2017-12-20T20:45:55.821Z,4.60
2017-12-20T20:48:23.317Z,4.60
2017-12-20T20:50:51.159Z,4.70
2017-12-20T20:53:19.019Z,4.60
2017-12-20T20:55:46.484Z,4.60
2017-12-20T20:58:13.942Z,4.60
2017-12-20T21:00:41.786Z,4.60
2017-12-20T21:03:09.278Z,4.60
2017-12-20T21:05:37.865Z,4.60
2017-12-20T21:08:05.522Z,4.60
2017-12-20T21:10:33.354Z,4.70
2017-12-20T21:13:01.191Z,4.70
2017-12-20T21:15:43.702Z,4.70
2017-12-20T21:19:44.396Z,4.70
2017-12-20T21:22:12.913Z,4.70
2017-12-20T21:24:40.632Z,4.70
2017-12-20T21:27:08.173Z,4.80
2017-12-20T21:29:36.480Z,4.70
2017-12-20T21:32:04.557Z,4.80
2017-12-20T21:34:33.688Z,4.80
2017-12-20T21:37:01.535Z,4.70
2017-12-20T21:39:29.041Z,4.70
2017-12-20T21:41:56.488Z,4.70
2017-12-20T21:44:23.991Z,4.70
2017-12-20T21:46:51.865Z,4.70
2017-12-20T21:49:22.785Z,4.70
2017-12-20T21:51:57.201Z,4.70
2017-12-20T21:54:25.982Z,4.70
2017-12-20T21:57:00.298Z,4.70
2017-12-20T21:59:30.029Z,4.70
2017-12-20T22:01:57.882Z,4.70
2017-12-20T22:04:31.899Z,4.70
2017-12-20T22:06:59.856Z,4.80
2017-12-20T22:09:27.314Z,4.80
2017-12-20T22:11:58.627Z,4.70
2017-12-20T22:14:30.639Z,4.70
2017-12-20T22:17:02.296Z,4.70
2017-12-20T22:19:48.286Z,4.70
2017-12-20T22:22:35.218Z,4.70
2017-12-20T22:27:47.191Z,4.80
2017-12-20T22:30:15.070Z,4.80
2017-12-20T22:32:49.128Z,4.80
2017-12-20T22:35:17.260Z,4.80
2017-12-20T22:37:45.639Z,4.80
2017-12-20T22:40:13.883Z,4.80
2017-12-20T22:42:42.979Z,4.80
2017-12-20T22:45:10.444Z,4.80
2017-12-20T22:47:37.906Z,5.00
2017-12-20T22:50:05.387Z,5.00
2017-12-20T22:52:32.851Z,4.90
2017-12-20T22:55:00.703Z,4.80
2017-12-20T22:57:28.238Z,4.80
2017-12-20T22:59:55.683Z,4.80
2017-12-20T23:02:23.130Z,4.80
2017-12-20T23:04:50.577Z,4.80
2017-12-20T23:07:18.091Z,4.80
2017-12-20T23:09:45.940Z,4.80
2017-12-20T23:12:13.369Z,4.80
2017-12-20T23:14:40.846Z,4.80
2017-12-20T23:17:08.998Z,4.90
2017-12-20T23:19:36.487Z,4.90
2017-12-20T23:22:03.965Z,4.80
2017-12-20T23:24:31.414Z,4.80
2017-12-20T23:26:58.894Z,4.80
2017-12-20T23:29:26.867Z,4.80
2017-12-20T23:31:54.738Z,4.80
2017-12-20T23:34:23.305Z,4.80
2017-12-20T23:36:51.190Z,4.70
2017-12-20T23:39:19.033Z,4.80
2017-12-20T23:41:46.899Z,4.80
2017-12-20T23:44:14.334Z,4.80
2017-12-20T23:46:42.266Z,4.80
2017-12-20T23:49:09.711Z,4.80
2017-12-20T23:54:15.324Z,4.80
2017-12-20T23:56:43.053Z,4.80
2017-12-20T23:59:11.288Z,4.80
